Time;durP1;ratioP1;P1;durP2;ratioP2;P2;SDS_P1;SDS_P2;PMS_P1;PMS_P2;Temp;Humidity;BMP_temperature;BMP_pressure;BME280_temperature;BME280_humidity;BME280_pressure;Samples;Min_cycle;Max_cycle;Signal;HPM_P1;HPM_P2
2021/10/29 00:01:51;;;;;;;20.25;12.73;;;10.60;99.90;;;;;;5052373;28;20425;-82
2021/10/29 00:04:19;;;;;;;21.15;13.07;;;10.50;99.90;;;;;;5054976;28;20021;-89
2021/10/29 00:06:46;;;;;;;20.80;12.70;;;10.50;99.90;;;;;;5036226;28;20599;-87
2021/10/29 00:09:13;;;;;;;20.63;12.13;;;10.40;99.90;;;;;;5053237;28;20021;-86
2021/10/29 00:11:39;;;;;;;21.35;12.23;;;10.30;99.90;;;;;;5051072;28;20056;-85
2021/10/29 00:14:05;;;;;;;18.15;10.93;;;10.40;99.90;;;;;;5041415;28;20106;-86
2021/10/29 00:16:30;;;;;;;21.30;11.48;;;10.40;99.90;;;;;;5057687;28;20807;-86
2021/10/29 00:18:56;;;;;;;20.80;12.00;;;10.40;99.90;;;;;;5034014;28;20416;-85
2021/10/29 00:21:22;;;;;;;20.55;10.73;;;10.30;99.90;;;;;;5052259;28;20029;-82
2021/10/29 00:23:47;;;;;;;22.65;13.23;;;10.30;99.90;;;;;;5051798;28;20025;-80
2021/10/29 00:26:13;;;;;;;19.02;12.05;;;10.40;99.90;;;;;;5052134;28;20067;-86
2021/10/29 00:28:39;;;;;;;21.98;12.90;;;10.40;99.90;;;;;;5052604;28;20055;-82
2021/10/29 00:31:04;;;;;;;17.30;11.32;;;10.30;99.90;;;;;;5051944;28;20474;-84
2021/10/29 00:33:30;;;;;;;21.50;12.48;;;10.30;99.90;;;;;;5052992;28;20021;-83
2021/10/29 00:35:55;;;;;;;20.02;10.60;;;10.30;99.90;;;;;;5052993;28;20040;-86
2021/10/29 00:38:21;;;;;;;20.55;12.15;;;10.20;99.90;;;;;;5052712;28;20460;-87
2021/10/29 00:40:47;;;;;;;21.23;11.73;;;10.30;99.90;;;;;;5050897;28;20102;-82
2021/10/29 00:43:14;;;;;;;20.38;11.93;;;10.20;99.90;;;;;;5034401;28;20493;-83
2021/10/29 00:45:41;;;;;;;21.60;12.68;;;10.20;99.90;;;;;;5045310;28;20099;-79
2021/10/29 00:48:07;;;;;;;24.33;11.07;;;10.20;99.90;;;;;;5052586;28;20086;-82
2021/10/29 00:50:34;;;;;;;16.48;10.75;;;10.20;99.90;;;;;;5049661;28;20017;-79
2021/10/29 00:53:02;;;;;;;17.70;10.43;;;10.20;99.90;;;;;;5051872;28;20040;-82
2021/10/29 00:55:28;;;;;;;19.95;11.05;;;10.20;99.90;;;;;;5034468;28;20017;-83
2021/10/29 00:57:53;;;;;;;19.83;11.88;;;10.20;99.90;;;;;;5051599;28;20024;-83
2021/10/29 01:00:20;;;;;;;18.63;10.45;;;10.20;99.90;;;;;;5050764;28;20710;-81
2021/10/29 01:02:45;;;;;;;19.10;9.50;;;10.30;99.90;;;;;;5051751;28;20029;-82
2021/10/29 01:05:11;;;;;;;16.90;9.60;;;10.30;99.90;;;;;;5051470;28;20362;-81
2021/10/29 01:07:37;;;;;;;15.85;9.50;;;10.30;99.90;;;;;;5033517;28;20477;-81
2021/10/29 01:10:05;;;;;;;17.38;10.00;;;10.40;99.90;;;;;;5051748;28;20039;-80
2021/10/29 01:12:32;;;;;;;16.83;10.40;;;10.40;99.90;;;;;;5051558;28;20029;-84
2021/10/29 01:15:00;;;;;;;14.38;8.73;;;10.40;99.90;;;;;;5054832;28;20024;-82
2021/10/29 01:17:27;;;;;;;14.10;8.90;;;10.50;99.90;;;;;;5056370;28;20029;-85
2021/10/29 01:19:56;;;;;;;16.65;8.35;;;10.50;99.90;;;;;;5050248;28;20530;-88
2021/10/29 01:22:24;;;;;;;13.95;9.07;;;10.60;99.90;;;;;;5033454;28;20385;-82
2021/10/29 01:24:52;;;;;;;13.32;8.20;;;10.60;99.90;;;;;;5053146;28;20079;-88
2021/10/29 01:27:21;;;;;;;13.57;8.65;;;10.70;99.90;;;;;;5051994;28;20089;-88
2021/10/29 01:29:47;;;;;;;17.75;8.23;;;10.60;99.90;;;;;;5052891;28;20419;-89
2021/10/29 01:32:20;;;;;;;13.95;7.85;;;10.70;99.90;;;;;;5051901;28;20465;-86
2021/10/29 01:34:49;;;;;;;19.25;8.65;;;10.90;99.90;;;;;;5035205;28;20029;-84
2021/10/29 01:37:15;;;;;;;14.65;7.28;;;10.90;99.90;;;;;;5052848;28;20045;-84
2021/10/29 01:39:41;;;;;;;13.38;7.45;;;10.90;99.90;;;;;;5052956;28;20527;-85
2021/10/29 01:42:07;;;;;;;12.40;7.43;;;11.00;99.90;;;;;;5052784;28;20013;-85
2021/10/29 01:44:34;;;;;;;9.90;7.22;;;11.00;99.90;;;;;;5053072;28;20074;-83
2021/10/29 01:47:01;;;;;;;9.68;7.10;;;11.10;99.90;;;;;;5055068;28;20037;-85
2021/10/29 01:49:26;;;;;;;9.82;7.05;;;11.20;99.90;;;;;;5052649;28;20075;-86
2021/10/29 01:51:52;;;;;;;9.27;6.40;;;11.20;99.90;;;;;;5051831;28;20025;-85
2021/10/29 01:54:19;;;;;;;11.70;6.55;;;11.30;99.90;;;;;;5050118;28;20029;-87
2021/10/29 01:56:45;;;;;;;9.50;7.03;;;11.20;99.90;;;;;;5051363;28;20446;-82
2021/10/29 01:59:11;;;;;;;9.20;6.90;;;11.30;99.90;;;;;;5052334;28;20381;-87
2021/10/29 02:01:37;;;;;;;8.25;6.15;;;11.40;99.90;;;;;;5052654;28;20032;-81
2021/10/29 02:04:02;;;;;;;13.90;6.50;;;11.40;99.90;;;;;;5046565;28;20033;-81
2021/10/29 02:06:29;;;;;;;12.88;7.35;;;11.50;99.90;;;;;;5044373;28;20187;-86
2021/10/29 02:08:55;;;;;;;9.65;6.97;;;11.50;99.90;;;;;;5052589;28;20028;-83
2021/10/29 02:11:20;;;;;;;11.20;6.70;;;11.50;99.90;;;;;;5055102;28;20392;-86
2021/10/29 02:13:46;;;;;;;9.98;6.13;;;11.60;99.90;;;;;;5056124;28;20028;-84
2021/10/29 02:16:12;;;;;;;8.60;6.03;;;11.70;99.90;;;;;;5061023;28;20030;-86
2021/10/29 02:18:39;;;;;;;9.38;5.95;;;11.70;99.90;;;;;;5055764;28;20033;-85
2021/10/29 02:21:04;;;;;;;13.48;6.10;;;11.70;99.90;;;;;;5051963;28;20546;-84
2021/10/29 02:23:30;;;;;;;8.32;6.85;;;11.80;99.90;;;;;;5055846;28;20029;-82
2021/10/29 02:25:57;;;;;;;13.95;6.47;;;11.80;99.90;;;;;;5053158;28;20029;-82
2021/10/29 02:28:23;;;;;;;15.60;6.57;;;11.70;99.90;;;;;;5055529;28;20029;-81
2021/10/29 02:30:50;;;;;;;11.02;7.38;;;11.80;99.90;;;;;;5055532;28;20025;-85
2021/10/29 02:33:17;;;;;;;9.85;6.32;;;11.70;99.90;;;;;;5038397;28;20025;-85
2021/10/29 02:35:44;;;;;;;8.73;6.13;;;11.70;99.90;;;;;;5055422;28;20489;-86
2021/10/29 02:38:12;;;;;;;8.25;6.05;;;11.70;99.90;;;;;;5057521;28;20056;-84
2021/10/29 02:40:38;;;;;;;10.57;6.05;;;11.80;99.90;;;;;;5032088;28;20028;-84
2021/10/29 02:43:04;;;;;;;8.55;6.38;;;11.80;99.90;;;;;;5037015;28;20056;-84
2021/10/29 02:45:30;;;;;;;9.02;6.38;;;11.80;99.90;;;;;;5057029;28;20461;-85
2021/10/29 02:47:57;;;;;;;9.75;6.10;;;11.80;99.90;;;;;;5055177;28;20036;-86
2021/10/29 02:50:23;;;;;;;10.27;5.97;;;11.80;99.90;;;;;;5037658;28;20014;-85
2021/10/29 02:52:49;;;;;;;10.13;6.43;;;11.80;99.90;;;;;;5055495;28;20028;-85
2021/10/29 02:55:16;;;;;;;10.60;6.32;;;11.70;99.90;;;;;;5037056;28;20051;-86
2021/10/29 02:57:42;;;;;;;11.70;6.05;;;11.80;99.90;;;;;;5021157;28;20021;-86
2021/10/29 03:00:14;;;;;;;7.50;5.57;;;11.80;99.90;;;;;;5035439;28;20385;-84
2021/10/29 03:02:41;;;;;;;10.88;5.85;;;11.80;99.90;;;;;;5046408;28;20122;-84
2021/10/29 03:05:08;;;;;;;9.38;6.25;;;11.90;99.90;;;;;;5037129;28;20027;-83
2021/10/29 03:07:34;;;;;;;7.65;5.43;;;11.90;99.90;;;;;;5036910;28;20544;-85
2021/10/29 03:10:00;;;;;;;9.27;6.45;;;11.90;99.90;;;;;;5037135;28;20108;-85
2021/10/29 03:12:26;;;;;;;10.30;5.57;;;11.90;99.90;;;;;;5055080;28;20029;-85
2021/10/29 03:14:51;;;;;;;13.00;6.68;;;11.90;99.90;;;;;;5056939;28;20039;-84
2021/10/29 03:17:17;;;;;;;7.10;5.43;;;11.90;99.90;;;;;;5074133;28;20035;-85
2021/10/29 03:19:43;;;;;;;12.95;6.03;;;11.90;99.90;;;;;;5055080;28;20021;-84
2021/10/29 03:22:10;;;;;;;12.48;6.47;;;11.80;99.90;;;;;;5053647;28;20099;-84
2021/10/29 03:24:35;;;;;;;10.70;5.80;;;11.80;99.90;;;;;;5054523;28;20036;-84
2021/10/29 03:27:01;;;;;;;7.55;5.50;;;11.80;99.90;;;;;;5053491;28;20033;-85
2021/10/29 03:29:28;;;;;;;9.82;5.80;;;11.80;99.90;;;;;;5053923;28;20488;-84
2021/10/29 03:31:55;;;;;;;11.77;6.05;;;11.80;99.90;;;;;;5052452;28;20029;-84
2021/10/29 03:34:22;;;;;;;10.85;5.65;;;11.90;99.90;;;;;;5054464;28;20060;-84
2021/10/29 03:36:49;;;;;;;9.05;6.07;;;11.80;99.90;;;;;;5054134;28;20029;-84
2021/10/29 03:41:54;;;;;;;9.95;6.13;;;11.80;99.90;;;;;;5034645;28;20029;-84
2021/10/29 03:44:28;;;;;;;9.80;6.25;;;11.80;99.90;;;;;;5042258;28;20082;-83
2021/10/29 03:46:56;;;;;;;13.60;6.13;;;11.80;99.90;;;;;;5055648;28;20029;-84
2021/10/29 03:49:29;;;;;;;8.73;5.40;;;11.80;99.90;;;;;;5053948;28;20040;-79
2021/10/29 03:52:07;;;;;;;17.42;6.10;;;11.70;99.90;;;;;;5036125;28;20124;-84
2021/10/29 03:54:35;;;;;;;8.57;6.13;;;11.70;99.90;;;;;;5047243;28;20014;-84
2021/10/29 03:59:28;;;;;;;8.63;6.03;;;11.60;99.90;;;;;;5053094;28;20029;-83
2021/10/29 04:01:55;;;;;;;12.52;5.53;;;11.60;99.90;;;;;;5054258;28;20446;-84
2021/10/29 04:04:20;;;;;;;13.25;6.45;;;11.60;99.90;;;;;;5053545;28;20083;-84
2021/10/29 04:06:46;;;;;;;14.95;6.28;;;11.50;99.90;;;;;;5052681;28;20481;-84
2021/10/29 04:09:13;;;;;;;11.68;6.07;;;11.60;99.90;;;;;;5051682;28;20067;-83
2021/10/29 04:11:40;;;;;;;9.35;6.50;;;11.50;99.90;;;;;;5053685;28;20031;-84
2021/10/29 04:14:10;;;;;;;10.48;5.97;;;11.60;99.90;;;;;;5035752;28;20094;-84
2021/10/29 04:16:40;;;;;;;11.10;5.80;;;11.60;99.90;;;;;;5053521;28;20084;-84
2021/10/29 04:19:09;;;;;;;12.90;6.65;;;11.60;99.90;;;;;;5053347;28;20481;-83
2021/10/29 04:21:36;;;;;;;13.60;5.90;;;11.60;99.90;;;;;;5052549;28;20032;-84
2021/10/29 04:24:03;;;;;;;11.77;7.18;;;11.50;99.90;;;;;;5035857;28;20074;-84
2021/10/29 04:26:29;;;;;;;17.13;7.15;;;11.50;99.90;;;;;;5052517;28;20033;-84
2021/10/29 04:28:56;;;;;;;10.52;6.13;;;11.60;99.90;;;;;;5035232;28;20133;-85
2021/10/29 04:31:30;;;;;;;14.05;7.25;;;11.50;99.90;;;;;;5052081;28;20040;-84
2021/10/29 04:33:56;;;;;;;9.40;6.45;;;11.50;99.90;;;;;;5041954;28;20048;-83
2021/10/29 04:36:24;;;;;;;10.75;6.15;;;11.50;99.90;;;;;;5050043;28;20086;-85
2021/10/29 04:38:50;;;;;;;10.10;6.82;;;11.50;99.90;;;;;;5053098;28;20028;-84
2021/10/29 04:41:17;;;;;;;10.82;6.00;;;11.60;99.90;;;;;;5034689;28;20353;-84
2021/10/29 04:43:45;;;;;;;11.65;6.20;;;11.50;99.90;;;;;;5052943;28;20040;-83
2021/10/29 04:46:10;;;;;;;8.90;6.20;;;11.50;99.90;;;;;;5052623;28;20037;-85
2021/10/29 04:48:36;;;;;;;8.55;6.13;;;11.50;99.90;;;;;;5053122;28;20376;-85
2021/10/29 04:51:02;;;;;;;11.75;6.97;;;11.60;99.90;;;;;;5053344;28;20070;-85
2021/10/29 04:53:30;;;;;;;9.93;6.03;;;11.60;99.90;;;;;;5053240;28;20025;-85
2021/10/29 04:55:57;;;;;;;10.52;5.85;;;11.60;99.90;;;;;;5052197;28;20027;-85
2021/10/29 04:58:23;;;;;;;13.68;6.25;;;11.50;99.90;;;;;;5052987;28;20326;-85
2021/10/29 05:00:49;;;;;;;10.80;6.30;;;11.50;99.90;;;;;;5041690;28;20052;-85
2021/10/29 05:03:15;;;;;;;13.65;6.30;;;11.50;99.90;;;;;;5058278;28;20045;-82
2021/10/29 05:05:41;;;;;;;10.80;6.38;;;11.50;99.90;;;;;;5053830;28;20035;-84
2021/10/29 05:08:07;;;;;;;9.30;6.60;;;11.50;99.90;;;;;;5052576;28;20113;-84
2021/10/29 05:10:33;;;;;;;10.13;6.63;;;11.50;99.90;;;;;;5052355;28;20032;-84
2021/10/29 05:12:59;;;;;;;13.35;6.18;;;11.40;99.90;;;;;;5052612;28;20481;-85
2021/10/29 05:15:26;;;;;;;12.77;6.47;;;11.50;99.90;;;;;;5057537;28;20023;-83
2021/10/29 05:17:54;;;;;;;12.10;5.55;;;11.50;99.90;;;;;;5052803;28;20485;-84
2021/10/29 05:20:20;;;;;;;13.15;6.68;;;11.60;99.90;;;;;;5034731;28;20078;-84
2021/10/29 05:22:45;;;;;;;11.02;5.85;;;11.50;99.90;;;;;;5052603;28;20021;-82
2021/10/29 05:25:12;;;;;;;10.57;6.50;;;11.50;99.90;;;;;;5052316;28;20151;-81
2021/10/29 05:27:37;;;;;;;11.60;6.93;;;11.50;99.90;;;;;;5052104;28;20036;-84
2021/10/29 05:30:08;;;;;;;11.45;6.57;;;11.40;99.90;;;;;;5052352;28;20025;-83
2021/10/29 05:32:34;;;;;;;10.07;7.07;;;11.40;99.90;;;;;;5052942;28;20028;-84
2021/10/29 05:35:00;;;;;;;14.50;6.43;;;11.30;99.90;;;;;;5052845;28;20043;-82
2021/10/29 05:37:29;;;;;;;13.27;6.43;;;11.40;99.90;;;;;;5052412;28;20033;-81
2021/10/29 05:39:57;;;;;;;14.18;7.10;;;11.30;99.90;;;;;;5052338;28;20122;-84
2021/10/29 05:42:23;;;;;;;13.48;6.40;;;11.40;99.90;;;;;;5052199;28;20493;-85
2021/10/29 05:44:49;;;;;;;14.13;7.25;;;11.30;99.90;;;;;;5052267;28;20358;-84
2021/10/29 05:47:16;;;;;;;10.90;6.68;;;11.40;99.90;;;;;;5037335;28;20048;-80
2021/10/29 05:49:43;;;;;;;15.25;6.72;;;11.30;99.90;;;;;;5056241;28;20021;-82
2021/10/29 05:52:15;;;;;;;13.60;6.80;;;11.30;99.90;;;;;;5056317;28;20031;-81
2021/10/29 05:57:23;;;;;;;10.80;6.88;;;11.40;99.90;;;;;;5055493;28;20476;-82
2021/10/29 05:59:51;;;;;;;14.63;8.32;;;11.40;99.90;;;;;;5055618;28;20041;-81
2021/10/29 06:02:16;;;;;;;15.75;8.85;;;11.40;99.90;;;;;;5055634;28;20056;-81
2021/10/29 06:04:44;;;;;;;15.80;7.70;;;11.30;99.90;;;;;;5055614;28;20477;-82
2021/10/29 06:07:10;;;;;;;12.68;7.60;;;11.30;99.90;;;;;;5055045;28;20048;-84
2021/10/29 06:09:35;;;;;;;11.07;6.72;;;11.20;99.90;;;;;;5055182;28;20021;-84
2021/10/29 06:12:03;;;;;;;12.85;8.35;;;11.20;99.90;;;;;;5054955;28;20102;-84
2021/10/29 06:14:29;;;;;;;11.40;6.97;;;11.20;99.90;;;;;;5056197;28;20021;-83
2021/10/29 06:16:57;;;;;;;10.60;7.50;;;11.10;99.90;;;;;;5054403;28;20363;-83
2021/10/29 06:19:23;;;;;;;14.50;7.53;;;11.10;99.90;;;;;;5053539;28;20067;-84
2021/10/29 06:24:27;;;;;;;17.77;7.35;;;11.10;99.90;;;;;;5055450;28;20029;-84
2021/10/29 06:28:11;;;;;;;13.43;7.57;;;11.10;99.90;;;;;;5052840;28;20029;-84
2021/10/29 06:29:57;;;;;;;12.00;6.93;;;11.10;99.90;;;;;;5054689;28;20115;-85
2021/10/29 06:32:23;;;;;;;11.00;7.28;;;11.00;99.90;;;;;;5054034;28;20108;-84
2021/10/29 06:34:49;;;;;;;15.43;7.50;;;11.00;99.90;;;;;;5054509;28;20465;-85
2021/10/29 06:37:16;;;;;;;14.50;8.35;;;10.80;99.90;;;;;;5054450;28;20222;-82
2021/10/29 06:39:48;;;;;;;14.48;9.18;;;10.70;99.90;;;;;;5054117;28;20104;-85
2021/10/29 06:42:20;;;;;;;14.63;8.30;;;10.80;99.90;;;;;;5053949;28;20037;-84
2021/10/29 06:45:10;;;;;;;14.15;8.93;;;10.90;99.90;;;;;;5056095;28;20020;-84
2021/10/29 06:47:49;;;;;;;14.52;8.50;;;10.90;99.90;;;;;;5054649;28;20080;-85
2021/10/29 07:01:21;;;;;;;16.80;9.05;;;10.90;99.90;;;;;;5052687;28;20064;-84
2021/10/29 07:12:19;;;;;;;14.25;8.35;;;10.60;99.90;;;;;;5052915;28;20625;-83
2021/10/29 07:42:10;;;;;;;18.00;10.10;;;10.70;99.90;;;;;;5044756;28;20585;-80
2021/10/29 07:44:38;;;;;;;18.50;10.50;;;10.70;99.90;;;;;;5049705;28;20108;-79
2021/10/29 07:47:04;;;;;;;19.50;10.80;;;10.80;99.90;;;;;;5049135;28;20036;-81
2021/10/29 07:49:30;;;;;;;17.17;9.20;;;10.80;99.90;;;;;;5053399;28;20473;-79
2021/10/29 07:51:57;;;;;;;13.48;9.30;;;10.90;99.90;;;;;;5053039;28;20058;-80
2021/10/29 07:54:25;;;;;;;15.15;9.18;;;10.90;99.90;;;;;;5051812;28;20381;-81
2021/10/29 07:56:51;;;;;;;15.05;10.23;;;10.90;99.90;;;;;;5053426;28;20053;-82
2021/10/29 07:59:21;;;;;;;18.15;9.98;;;10.90;99.90;;;;;;5052396;28;20098;-81
2021/10/29 08:01:48;;;;;;;19.85;9.75;;;10.90;99.90;;;;;;5053524;28;20021;-81
2021/10/29 08:04:15;;;;;;;24.77;9.48;;;10.90;99.90;;;;;;5052351;28;20506;-81
2021/10/29 08:06:41;;;;;;;17.13;9.13;;;11.00;99.90;;;;;;5052361;28;20540;-82
2021/10/29 08:09:07;;;;;;;13.38;8.88;;;11.00;99.90;;;;;;5052407;28;20451;-80
2021/10/29 08:11:33;;;;;;;18.35;9.32;;;11.10;99.90;;;;;;5053427;28;20029;-82
2021/10/29 08:13:59;;;;;;;21.10;9.65;;;11.20;99.90;;;;;;5052227;28;20044;-82
2021/10/29 08:16:25;;;;;;;18.60;9.30;;;11.20;99.90;;;;;;5057319;28;20033;-79
2021/10/29 08:18:51;;;;;;;14.48;8.18;;;11.30;99.90;;;;;;5052879;28;20027;-81
2021/10/29 08:21:17;;;;;;;18.27;9.48;;;11.40;99.90;;;;;;5051625;28;20025;-83
2021/10/29 08:23:42;;;;;;;14.07;8.38;;;11.50;99.90;;;;;;5035052;28;20040;-81
2021/10/29 08:26:11;;;;;;;15.77;8.55;;;11.50;99.90;;;;;;5051480;28;20028;-80
2021/10/29 08:28:38;;;;;;;14.90;9.25;;;11.60;99.90;;;;;;5034492;28;20056;-80
2021/10/29 08:31:04;;;;;;;15.40;8.60;;;11.70;99.90;;;;;;5052081;28;20029;-82
2021/10/29 08:33:29;;;;;;;14.27;7.47;;;11.80;99.90;;;;;;5034716;28;20037;-83
2021/10/29 08:35:55;;;;;;;8.65;7.47;;;11.90;99.90;;;;;;5052114;28;20504;-82
2021/10/29 08:38:22;;;;;;;12.43;6.95;;;12.10;99.90;;;;;;5032422;28;20025;-81
2021/10/29 08:40:49;;;;;;;10.00;6.95;;;12.30;99.90;;;;;;5051319;28;20041;-81
2021/10/29 08:43:15;;;;;;;12.32;6.75;;;12.40;99.90;;;;;;5051818;28;20040;-81
2021/10/29 08:45:44;;;;;;;9.18;5.95;;;12.60;99.90;;;;;;5050985;28;20025;-83
2021/10/29 08:48:11;;;;;;;8.68;6.72;;;12.90;99.90;;;;;;5033843;28;20040;-86
2021/10/29 08:50:37;;;;;;;12.10;5.78;;;12.90;99.90;;;;;;5034559;28;20021;-85
2021/10/29 08:53:04;;;;;;;9.38;5.60;;;13.00;99.90;;;;;;5034694;28;20025;-85
2021/10/29 08:55:32;;;;;;;10.63;5.35;;;13.20;99.90;;;;;;5032944;28;20029;-84
2021/10/29 08:58:01;;;;;;;8.65;5.32;;;13.40;99.90;;;;;;5052401;28;20481;-86
2021/10/29 09:00:33;;;;;;;8.75;5.47;;;13.40;99.90;;;;;;5034489;28;20021;-86
2021/10/29 09:03:05;;;;;;;9.38;4.90;;;13.70;99.90;;;;;;5035287;28;20053;-88
2021/10/29 09:08:32;;;;;;;7.45;4.05;;;13.90;99.90;;;;;;5052187;28;20127;-84
2021/10/29 09:32:44;;;;;;;8.32;4.30;;;15.00;99.90;;;;;;5056485;28;20516;-81
2021/10/29 09:35:14;;;;;;;6.40;4.20;;;15.10;99.90;;;;;;5055556;28;20117;-80
2021/10/29 09:38:06;;;;;;;6.22;4.38;;;15.20;99.90;;;;;;5037245;28;20025;-81
2021/10/29 09:40:34;;;;;;;9.13;5.28;;;15.30;99.90;;;;;;5037482;28;20110;-80
2021/10/29 09:43:14;;;;;;;6.90;4.40;;;15.50;99.90;;;;;;5042175;28;20029;-80
2021/10/29 09:45:48;;;;;;;4.47;3.92;;;15.50;99.90;;;;;;5051460;28;20025;-80
2021/10/29 09:48:21;;;;;;;6.03;3.80;;;15.50;99.90;;;;;;5043188;28;20036;-80
2021/10/29 09:50:57;;;;;;;7.88;4.05;;;15.60;99.90;;;;;;5054797;28;20025;-82
2021/10/29 09:58:43;;;;;;;7.40;4.07;;;15.70;99.90;;;;;;5056173;28;20094;-85
2021/10/29 10:01:10;;;;;;;6.88;3.95;;;15.70;99.90;;;;;;5055817;28;20021;-79
2021/10/29 10:03:39;;;;;;;8.68;4.22;;;15.90;99.90;;;;;;5055232;28;20017;-80
2021/10/29 10:06:05;;;;;;;5.80;3.72;;;15.90;99.90;;;;;;5055216;28;20181;-81
2021/10/29 10:08:33;;;;;;;5.88;3.78;;;16.10;99.90;;;;;;5051222;28;20037;-79
2021/10/29 10:10:59;;;;;;;5.30;3.92;;;16.00;99.90;;;;;;5047946;28;20032;-80
2021/10/29 10:13:26;;;;;;;7.10;4.28;;;16.10;99.90;;;;;;5051304;28;20397;-80
2021/10/29 10:15:54;;;;;;;7.57;3.90;;;16.30;99.90;;;;;;5042141;28;20025;-79
2021/10/29 10:18:20;;;;;;;10.02;4.25;;;16.50;99.90;;;;;;5052761;28;20472;-78
2021/10/29 10:20:52;;;;;;;11.82;4.45;;;16.60;99.90;;;;;;5055099;28;20124;-82
2021/10/29 10:23:20;;;;;;;7.15;4.13;;;16.70;99.90;;;;;;5055229;28;20111;-80
2021/10/29 10:49:10;;;;;;;7.63;3.67;;;17.40;99.90;;;;;;5034961;28;20033;-81
2021/10/29 10:51:57;;;;;;;7.70;2.80;;;17.50;99.90;;;;;;5046380;28;20024;-79
2021/10/29 11:05:22;;;;;;;4.20;2.90;;;17.70;99.90;;;;;;5051561;28;20068;-88
2021/10/29 11:10:39;;;;;;;5.22;3.10;;;17.90;99.90;;;;;;5004976;28;20027;-81
2021/10/29 11:13:07;;;;;;;3.70;2.85;;;17.80;99.90;;;;;;5031445;28;20370;-81
2021/10/29 11:15:33;;;;;;;5.50;3.20;;;18.00;99.90;;;;;;5042088;28;20378;-76
2021/10/29 11:18:31;;;;;;;3.65;3.05;;;18.10;99.90;;;;;;5047436;28;20033;-77
2021/10/29 11:21:21;;;;;;;4.45;2.42;;;18.20;99.90;;;;;;5025696;28;20535;-76
2021/10/29 11:23:58;;;;;;;6.97;2.75;;;18.20;99.90;;;;;;5039705;28;20017;-83
2021/10/29 11:26:25;;;;;;;3.10;2.80;;;18.20;99.90;;;;;;5030473;28;20033;-83
2021/10/29 11:28:54;;;;;;;5.30;2.80;;;18.30;99.90;;;;;;5033891;28;20094;-83
2021/10/29 11:31:37;;;;;;;7.45;2.95;;;18.30;99.90;;;;;;5033576;28;20369;-83
2021/10/29 11:34:06;;;;;;;5.07;2.53;;;18.40;99.90;;;;;;5030083;28;20049;-83
2021/10/29 11:36:39;;;;;;;6.30;2.83;;;18.30;99.90;;;;;;5032918;28;20087;-81
2021/10/29 11:39:10;;;;;;;5.03;2.42;;;18.40;99.90;;;;;;5027217;28;20040;-82
2021/10/29 11:41:39;;;;;;;3.85;2.80;;;18.50;99.90;;;;;;5048509;28;20013;-82
2021/10/29 11:44:14;;;;;;;5.95;2.58;;;18.50;99.90;;;;;;5043284;28;20033;-80
2021/10/29 11:46:42;;;;;;;6.03;2.67;;;18.60;99.90;;;;;;5044540;28;20036;-82
2021/10/29 11:49:13;;;;;;;5.20;2.75;;;18.60;99.90;;;;;;5041281;28;20028;-84
2021/10/29 11:51:42;;;;;;;9.63;3.75;;;18.60;99.90;;;;;;5046155;28;20025;-84
2021/10/29 11:54:15;;;;;;;5.72;2.80;;;18.50;99.90;;;;;;5029740;28;20028;-86
2021/10/29 11:56:57;;;;;;;5.13;2.70;;;18.60;99.90;;;;;;5045317;28;20021;-82
2021/10/29 12:07:23;;;;;;;3.92;2.85;;;18.70;99.90;;;;;;5049190;28;20455;-83
2021/10/29 12:09:51;;;;;;;5.50;2.42;;;18.70;99.90;;;;;;5050138;28;20133;-82
2021/10/29 12:12:21;;;;;;;6.57;2.05;;;18.80;99.90;;;;;;5048627;28;20028;-82
2021/10/29 12:14:50;;;;;;;4.63;2.58;;;18.70;99.90;;;;;;5047479;28;20028;-81
2021/10/29 12:17:24;;;;;;;4.55;2.38;;;18.80;99.90;;;;;;5051819;28;20801;-85
2021/10/29 12:19:55;;;;;;;7.88;2.80;;;18.80;99.90;;;;;;5030424;28;20029;-81
2021/10/29 12:22:33;;;;;;;7.40;2.70;;;18.80;99.90;;;;;;5043792;28;20049;-85
2021/10/29 12:28:02;;;;;;;5.53;2.90;;;18.80;99.90;;;;;;4992663;28;20091;-81
2021/10/29 12:31:49;;;;;;;3.75;1.95;;;18.80;99.90;;;;;;5028483;28;20120;-81
2021/10/29 12:53:43;;;;;;;5.13;2.40;;;18.80;99.90;;;;;;5043751;28;20048;-77
2021/10/29 13:01:41;;;;;;;6.07;2.60;;;18.70;99.90;;;;;;5046813;28;20033;-79
2021/10/29 13:04:18;;;;;;;6.38;2.45;;;18.80;99.90;;;;;;5041856;28;20111;-79
2021/10/29 13:06:46;;;;;;;4.30;2.30;;;18.80;99.90;;;;;;5044149;28;20029;-79
2021/10/29 13:09:15;;;;;;;5.90;2.83;;;18.80;99.90;;;;;;5025117;28;20047;-78
2021/10/29 13:11:53;;;;;;;5.72;2.58;;;18.80;99.90;;;;;;5030948;28;20396;-80
2021/10/29 13:14:25;;;;;;;5.63;2.65;;;18.70;99.90;;;;;;5048843;28;20071;-79
2021/10/29 13:16:52;;;;;;;6.32;2.85;;;18.80;99.90;;;;;;5041652;28;20029;-79
2021/10/29 14:31:47;;;;;;;5.68;2.40;;;18.60;99.90;;;;;;5049480;28;20029;-84
2021/10/29 14:34:20;;;;;;;4.15;2.15;;;18.60;99.90;;;;;;5032594;28;20076;-82
2021/10/29 14:39:23;;;;;;;3.72;2.70;;;18.40;99.90;;;;;;5057551;28;20091;-84
2021/10/29 14:44:52;;;;;;;7.57;3.15;;;18.50;99.90;;;;;;5051004;28;20047;-84
2021/10/29 14:49:53;;;;;;;4.63;3.38;;;18.50;99.90;;;;;;5037001;28;20113;-84
2021/10/29 15:03:10;;;;;;;10.77;3.33;;;18.50;99.90;;;;;;5056002;28;20107;-84
2021/10/29 15:17:05;;;;;;;8.57;3.08;;;18.40;99.90;;;;;;5058774;28;20040;-84
2021/10/29 15:30:48;;;;;;;5.78;3.10;;;18.30;99.90;;;;;;5055685;28;20027;-85
2021/10/29 15:46:18;;;;;;;5.75;3.85;;;18.20;99.90;;;;;;5046052;28;20033;-80
2021/10/29 15:48:49;;;;;;;4.97;3.33;;;18.20;99.90;;;;;;5048965;28;20099;-80
2021/10/29 15:51:15;;;;;;;9.63;3.78;;;18.20;99.90;;;;;;5042375;28;20025;-81
2021/10/29 15:53:42;;;;;;;10.05;3.67;;;18.20;99.90;;;;;;5047121;28;20495;-80
2021/10/29 15:56:13;;;;;;;4.90;3.40;;;18.20;99.90;;;;;;5042499;28;20028;-81
2021/10/29 16:02:00;;;;;;;5.93;3.20;;;18.10;99.90;;;;;;5046285;28;20064;-83
2021/10/29 16:17:54;;;;;;;4.22;3.30;;;18.10;99.90;;;;;;5045277;28;20037;-81
2021/10/29 16:20:20;;;;;;;6.63;4.07;;;18.10;99.90;;;;;;5032515;28;20549;-79
2021/10/29 16:22:46;;;;;;;5.60;3.30;;;18.00;99.90;;;;;;5044483;28;20104;-81
2021/10/29 16:25:17;;;;;;;4.55;3.25;;;17.90;99.90;;;;;;5045793;28;20528;-81
2021/10/29 16:30:09;;;;;;;4.05;3.10;;;17.80;99.90;;;;;;5042872;28;20087;-80
2021/10/29 16:33:05;;;;;;;7.47;3.20;;;17.80;99.90;;;;;;5048089;28;20021;-81
2021/10/29 16:35:34;;;;;;;10.90;4.18;;;17.70;99.90;;;;;;5053137;28;20466;-81
2021/10/29 16:38:01;;;;;;;9.98;3.97;;;17.70;99.90;;;;;;5049149;28;20045;-81
2021/10/29 16:40:27;;;;;;;5.00;3.70;;;17.70;99.90;;;;;;5047101;28;20037;-83
2021/10/29 16:42:52;;;;;;;5.90;2.88;;;17.70;99.90;;;;;;5044566;28;20032;-81
2021/10/29 16:45:20;;;;;;;6.97;4.38;;;17.70;99.90;;;;;;5049267;28;20032;-81
2021/10/29 16:47:46;;;;;;;7.75;4.55;;;17.70;99.90;;;;;;5048470;28;20041;-81
2021/10/29 16:50:14;;;;;;;6.13;4.10;;;17.70;99.90;;;;;;5050595;28;20033;-82
2021/10/29 16:52:40;;;;;;;5.85;3.97;;;17.60;99.90;;;;;;5045031;28;20107;-81
2021/10/29 16:55:08;;;;;;;8.85;4.13;;;17.50;99.90;;;;;;5044861;28;20033;-80
2021/10/29 16:57:34;;;;;;;8.05;4.15;;;17.50;99.90;;;;;;5047189;28;20091;-80
2021/10/29 17:00:02;;;;;;;9.05;4.15;;;17.50;99.90;;;;;;5047989;28;20040;-81
2021/10/29 17:02:28;;;;;;;8.15;4.97;;;17.50;99.90;;;;;;5043842;28;20016;-81
2021/10/29 17:04:53;;;;;;;9.75;4.95;;;17.50;99.90;;;;;;5041648;28;20396;-81
2021/10/29 17:07:19;;;;;;;8.18;5.10;;;17.40;99.90;;;;;;5040380;28;20124;-81
2021/10/29 17:09:48;;;;;;;10.68;4.93;;;17.50;99.90;;;;;;5041727;28;20028;-81
2021/10/29 17:12:14;;;;;;;6.93;4.22;;;17.50;99.90;;;;;;5032048;28;20025;-81
2021/10/29 17:14:40;;;;;;;8.95;4.18;;;17.50;99.90;;;;;;5045771;28;20031;-82
2021/10/29 17:17:06;;;;;;;8.90;4.53;;;17.50;99.90;;;;;;5048430;28;20021;-81
2021/10/29 17:19:32;;;;;;;5.30;4.18;;;17.50;99.90;;;;;;5041856;28;20374;-81
2021/10/29 17:21:57;;;;;;;10.80;4.20;;;17.40;99.90;;;;;;5039570;28;20029;-82
2021/10/29 17:24:23;;;;;;;7.13;4.68;;;17.40;99.90;;;;;;5044464;28;20029;-79
2021/10/29 17:26:49;;;;;;;8.73;5.55;;;17.40;99.90;;;;;;5045557;28;20044;-79
2021/10/29 17:29:14;;;;;;;7.95;5.78;;;17.30;99.90;;;;;;5049017;28;20036;-79
2021/10/29 17:31:40;;;;;;;8.32;4.55;;;17.30;99.90;;;;;;5047758;28;20471;-78
2021/10/29 17:34:06;;;;;;;9.50;5.18;;;17.20;99.90;;;;;;5048772;28;20025;-78
2021/10/29 17:36:32;;;;;;;6.63;4.80;;;17.10;99.90;;;;;;5044828;28;20124;-79
2021/10/29 17:38:58;;;;;;;6.68;4.47;;;17.00;99.90;;;;;;5045710;28;20111;-81
2021/10/29 17:41:26;;;;;;;6.55;5.45;;;17.10;99.90;;;;;;5031972;28;20109;-80
2021/10/29 17:43:52;;;;;;;10.55;6.10;;;17.00;99.90;;;;;;5052540;28;20507;-81
2021/10/29 17:46:18;;;;;;;7.20;5.70;;;17.00;99.90;;;;;;5048002;28;20028;-81
2021/10/29 17:48:44;;;;;;;9.30;5.07;;;17.00;99.90;;;;;;5047438;28;20025;-82
2021/10/29 17:51:10;;;;;;;9.40;5.55;;;17.00;99.90;;;;;;5034930;28;20021;-81
2021/10/29 17:53:35;;;;;;;9.02;5.00;;;17.00;99.90;;;;;;5047642;28;20025;-81